createdAt,value
2022-09-17T00:04:30.252Z,58.00
2022-09-17T00:06:58.349Z,58.40
2022-09-17T00:09:26.421Z,58.30
2022-09-17T00:11:54.487Z,58.00
2022-09-17T00:14:22.575Z,58.10
2022-09-17T00:16:50.639Z,58.20
2022-09-17T00:19:22.828Z,58.30
2022-09-17T00:21:52.808Z,58.10
2022-09-17T00:24:21.860Z,58.20
2022-09-17T00:26:51.878Z,58.00
2022-09-17T00:29:20.279Z,58.00
2022-09-17T00:31:48.427Z,58.20
2022-09-17T00:34:16.761Z,58.10
2022-09-17T00:36:44.944Z,58.00
2022-09-17T00:39:15.686Z,58.20
2022-09-17T00:41:45.109Z,58.20
2022-09-17T00:44:46.173Z,58.10
2022-09-17T00:47:25.835Z,58.20
2022-09-17T00:49:57.889Z,58.10
2022-09-17T00:52:30.872Z,58.80
2022-09-17T00:55:09.127Z,58.40
2022-09-17T00:57:37.549Z,58.30
2022-09-17T01:00:07.961Z,58.40
2022-09-17T01:46:35.690Z,57.70
2022-09-17T01:49:07.490Z,57.90
2022-09-17T01:51:40.888Z,57.90
2022-09-17T01:54:19.273Z,57.80
2022-09-17T01:56:57.835Z,57.80
2022-09-17T01:59:31.860Z,58.00
2022-09-17T02:46:38.321Z,56.40
2022-09-17T02:49:28.818Z,56.40
2022-09-17T02:52:14.113Z,56.50
2022-09-17T02:54:52.861Z,57.00
2022-09-17T02:57:29.950Z,56.40
2022-09-17T03:00:06.207Z,56.30
2022-09-17T03:46:28.204Z,56.30
2022-09-17T03:48:56.359Z,56.50
2022-09-17T03:51:24.621Z,56.50
2022-09-17T03:53:52.679Z,56.40
2022-09-17T03:56:20.901Z,56.40
2022-09-17T03:58:48.996Z,56.30
2022-09-17T04:01:17.312Z,56.40
2022-09-17T04:03:47.090Z,56.30
2022-09-17T04:06:15.329Z,56.30
2022-09-17T04:08:44.061Z,56.30
2022-09-17T04:11:12.907Z,56.30
2022-09-17T04:13:41.435Z,56.20
2022-09-17T04:32:00.763Z,56.10
2022-09-17T04:34:29.385Z,56.00
2022-09-17T04:36:57.750Z,56.10
2022-09-17T04:39:26.354Z,56.20
2022-09-17T04:41:54.857Z,56.20
2022-09-17T04:44:23.448Z,56.20
2022-09-17T04:46:52.335Z,56.20
2022-09-17T04:49:21.862Z,56.30
2022-09-17T04:51:50.409Z,56.20
2022-09-17T04:54:18.752Z,56.20
2022-09-17T04:56:46.950Z,56.20
2022-09-17T04:59:15.302Z,56.20
2022-09-17T05:01:43.854Z,56.20
2022-09-17T05:04:12.477Z,56.20
2022-09-17T05:06:42.347Z,56.20
2022-09-17T05:09:10.714Z,56.20
2022-09-17T05:11:39.133Z,56.20
2022-09-17T05:14:07.539Z,56.20
2022-09-17T05:16:35.945Z,56.20
2022-09-17T05:19:04.246Z,56.20
2022-09-17T05:21:32.443Z,56.20
2022-09-17T05:24:02.569Z,56.30
2022-09-17T05:26:30.896Z,56.30
2022-09-17T05:28:59.225Z,56.20
2022-09-17T05:31:27.735Z,56.20
2022-09-17T05:33:56.067Z,56.10
2022-09-17T05:36:24.241Z,56.20
2022-09-17T05:38:52.494Z,56.20
2022-09-17T05:41:21.978Z,56.10
2022-09-17T05:43:51.197Z,56.20
2022-09-17T05:46:19.366Z,56.20
2022-09-17T05:48:47.549Z,56.10
2022-09-17T05:51:15.694Z,56.20
2022-09-17T05:53:43.819Z,56.10
2022-09-17T05:56:12.576Z,56.20
2022-09-17T05:58:42.272Z,56.20
2022-09-17T06:01:16.008Z,56.20
2022-09-17T06:03:44.335Z,56.10
2022-09-17T06:06:12.514Z,56.10
2022-09-17T06:08:40.838Z,56.10
2022-09-17T06:11:10.427Z,56.20
2022-09-17T06:13:38.800Z,56.20
2022-09-17T06:16:08.710Z,56.10
2022-09-17T06:18:36.938Z,56.10
2022-09-17T06:21:06.607Z,56.20
2022-09-17T06:23:37.131Z,56.10
2022-09-17T06:26:07.232Z,56.20
2022-09-17T06:28:41.474Z,56.20
2022-09-17T06:31:13.555Z,56.10
2022-09-17T06:33:42.496Z,56.10
2022-09-17T06:36:14.384Z,56.10
2022-09-17T06:38:43.784Z,56.00
2022-09-17T06:41:12.488Z,56.10
2022-09-17T06:43:40.695Z,56.10
2022-09-17T06:46:09.329Z,56.50
2022-09-17T06:48:39.888Z,57.10
2022-09-17T06:51:11.299Z,56.60
2022-09-17T06:53:40.742Z,51.90
2022-09-17T06:56:10.434Z,53.40
2022-09-17T06:58:41.593Z,55.50
2022-09-17T07:01:11.785Z,55.60
2022-09-17T07:03:45.629Z,55.90
2022-09-17T07:06:14.619Z,55.80
2022-09-17T07:08:43.799Z,55.70
2022-09-17T07:11:12.141Z,55.50
2022-09-17T07:13:40.922Z,55.30
2022-09-17T07:16:11.548Z,54.90
2022-09-17T07:18:41.297Z,54.80
2022-09-17T07:21:10.949Z,54.70
2022-09-17T07:23:39.252Z,54.60
2022-09-17T07:26:14.271Z,54.30
2022-09-17T07:28:44.320Z,54.40
2022-09-17T07:31:16.393Z,55.10
2022-09-17T07:33:47.047Z,54.80
2022-09-17T07:36:18.179Z,55.10
2022-09-17T07:38:47.192Z,54.30
2022-09-17T07:41:18.320Z,54.20
2022-09-17T07:43:46.960Z,53.90
2022-09-17T07:46:19.057Z,53.70
2022-09-17T07:48:49.310Z,53.40
2022-09-17T07:51:19.248Z,53.40
2022-09-17T07:53:48.819Z,53.10
2022-09-17T07:56:17.149Z,53.50
2022-09-17T07:58:45.845Z,52.80
2022-09-17T08:01:16.697Z,53.30
2022-09-17T08:03:51.241Z,53.00
2022-09-17T08:06:22.368Z,54.30
2022-09-17T08:08:51.105Z,53.20
2022-09-17T08:11:44.621Z,53.00
2022-09-17T08:14:13.095Z,53.10
2022-09-17T08:16:42.781Z,53.30
2022-09-17T08:19:12.574Z,53.50
2022-09-17T08:21:40.842Z,53.80
2022-09-17T08:24:09.282Z,53.60
2022-09-17T08:26:39.114Z,53.50
2022-09-17T08:29:07.620Z,53.30
2022-09-17T08:31:36.316Z,53.10
2022-09-17T08:34:09.738Z,52.90
2022-09-17T08:36:39.721Z,53.10
2022-09-17T08:39:08.167Z,53.00
2022-09-17T08:41:50.840Z,53.00
2022-09-17T08:44:28.719Z,52.50
2022-09-17T08:47:06.444Z,52.50
2022-09-17T08:49:37.702Z,52.70
2022-09-17T08:52:41.831Z,53.00
2022-09-17T08:55:27.241Z,53.60
2022-09-17T08:58:15.533Z,53.90
2022-09-17T09:00:52.565Z,54.10
2022-09-17T09:03:38.828Z,55.00
2022-09-17T09:06:10.820Z,54.80
2022-09-17T09:08:46.301Z,55.30
2022-09-17T09:11:17.660Z,54.80
2022-09-17T09:13:51.380Z,54.80
2022-09-17T09:16:23.218Z,55.30
2022-09-17T09:18:55.887Z,55.20
2022-09-17T09:21:29.755Z,55.30
2022-09-17T09:24:09.001Z,56.00
2022-09-17T09:26:45.889Z,56.00
2022-09-17T09:29:24.057Z,55.00
2022-09-17T09:32:16.162Z,55.00
2022-09-17T09:34:47.073Z,55.30
2022-09-17T09:37:20.861Z,55.40
2022-09-17T09:39:53.442Z,54.30
2022-09-17T09:42:31.067Z,53.90
2022-09-17T09:45:04.934Z,54.00
2022-09-17T09:47:55.883Z,56.10
2022-09-17T09:51:05.317Z,55.70
2022-09-17T09:53:46.464Z,55.00
2022-09-17T09:56:36.341Z,54.80
2022-09-17T09:59:08.871Z,55.20
2022-09-17T10:01:43.076Z,55.60
2022-09-17T10:04:21.449Z,55.60
2022-09-17T10:06:53.646Z,56.10
2022-09-17T10:09:23.337Z,56.30
2022-09-17T10:12:06.532Z,56.90
2022-09-17T10:14:36.705Z,56.70
2022-09-17T10:17:24.318Z,57.10
2022-09-17T10:20:22.752Z,57.20
2022-09-17T10:22:51.482Z,57.00
2022-09-17T10:25:43.497Z,57.20
2022-09-17T10:28:36.251Z,57.00
2022-09-17T10:31:10.307Z,57.80
2022-09-17T10:33:51.806Z,56.80
2022-09-17T10:36:39.546Z,56.60
2022-09-17T10:39:36.614Z,56.80
2022-09-17T10:42:07.255Z,56.60
2022-09-17T10:44:38.209Z,59.70
2022-09-17T10:47:13.824Z,59.00
2022-09-17T10:49:47.730Z,58.00
2022-09-17T10:52:28.196Z,58.20
2022-09-17T10:55:25.946Z,58.20
2022-09-17T10:58:12.533Z,58.50
2022-09-17T11:01:02.439Z,58.70
2022-09-17T11:04:04.231Z,59.00
2022-09-17T11:07:03.068Z,59.10
2022-09-17T11:09:45.177Z,57.90
2022-09-17T11:12:29.168Z,57.90
2022-09-17T11:15:05.339Z,58.00
2022-09-17T11:17:56.572Z,58.20
2022-09-17T11:20:43.851Z,58.40
2022-09-17T11:23:39.729Z,58.60
2022-09-17T11:26:14.321Z,58.70
2022-09-17T11:28:58.568Z,58.30
2022-09-17T11:31:37.990Z,57.50
2022-09-17T11:34:30.933Z,57.30
2022-09-17T11:37:07.435Z,57.40
2022-09-17T11:39:44.259Z,57.70
2022-09-17T11:42:19.241Z,57.20
2022-09-17T11:44:52.654Z,57.30
2022-09-17T11:47:24.931Z,57.30
2022-09-17T11:50:01.083Z,57.20
2022-09-17T11:52:38.028Z,57.10
2022-09-17T11:55:19.132Z,56.80
2022-09-17T11:57:50.220Z,56.70
2022-09-17T12:00:22.669Z,55.70
2022-09-17T12:02:57.272Z,56.60
2022-09-17T12:05:31.104Z,56.00
2022-09-17T12:08:14.661Z,56.10
2022-09-17T12:10:50.533Z,56.30
2022-09-17T12:13:25.488Z,56.60
2022-09-17T12:16:16.429Z,56.80
2022-09-17T12:18:57.645Z,57.60
2022-09-17T12:21:31.451Z,57.00
2022-09-17T12:24:07.100Z,57.10
2022-09-17T12:27:07.282Z,57.30
2022-09-17T12:30:06.189Z,57.20
2022-09-17T12:33:03.308Z,57.20
2022-09-17T12:36:05.811Z,57.20
2022-09-17T12:39:11.116Z,57.10
2022-09-17T12:41:53.893Z,57.30
2022-09-17T12:45:01.775Z,57.40
2022-09-17T12:48:10.823Z,57.40
2022-09-17T12:50:52.664Z,53.50
2022-09-17T12:53:28.260Z,53.40
2022-09-17T12:56:32.109Z,53.70
2022-09-17T12:59:12.089Z,53.30
2022-09-17T13:01:51.540Z,53.00
2022-09-17T13:05:00.366Z,52.70
2022-09-17T13:08:10.339Z,52.20
2022-09-17T13:11:12.292Z,53.00
2022-09-17T13:13:50.360Z,52.20
2022-09-17T13:16:24.379Z,51.40
2022-09-17T13:19:17.182Z,52.30
2022-09-17T13:21:54.588Z,52.40
2022-09-17T13:24:25.561Z,52.60
2022-09-17T13:26:55.912Z,52.60
2022-09-17T13:30:01.314Z,53.10
2022-09-17T13:32:55.178Z,53.00
2022-09-17T13:35:51.575Z,53.00
2022-09-17T13:38:23.963Z,53.10
2022-09-17T13:40:53.465Z,53.30
2022-09-17T13:43:27.688Z,53.30
2022-09-17T13:46:23.969Z,53.30
2022-09-17T13:48:59.081Z,53.40
2022-09-17T13:51:56.150Z,54.00
2022-09-17T13:54:36.503Z,53.80
2022-09-17T13:57:09.349Z,54.00
2022-09-17T13:59:39.028Z,54.00
2022-09-17T14:02:37.498Z,54.00
2022-09-17T14:05:35.642Z,53.10
2022-09-17T14:08:30.511Z,53.10
2022-09-17T14:11:03.277Z,52.50
2022-09-17T14:13:45.038Z,52.50
2022-09-17T14:16:46.387Z,52.90
2022-09-17T14:19:51.274Z,52.50
2022-09-17T14:22:27.112Z,53.40
2022-09-17T14:24:56.474Z,52.60
2022-09-17T14:27:56.024Z,52.70
2022-09-17T14:30:27.812Z,52.60
2022-09-17T14:33:07.592Z,52.70
2022-09-17T14:35:42.558Z,52.80
2022-09-17T14:38:17.275Z,52.90
2022-09-17T14:40:49.210Z,52.90
2022-09-17T14:43:23.192Z,53.00
2022-09-17T14:45:53.898Z,53.10
2022-09-17T14:48:30.422Z,53.10
2022-09-17T14:51:28.465Z,53.10
2022-09-17T14:54:21.891Z,53.00
2022-09-17T14:56:58.198Z,52.90
2022-09-17T14:59:44.057Z,52.80
2022-09-17T15:02:38.192Z,52.80
2022-09-17T15:05:30.381Z,53.00
2022-09-17T15:08:18.563Z,53.00
2022-09-17T15:10:50.790Z,52.80
2022-09-17T15:13:23.025Z,52.90
2022-09-17T15:15:59.208Z,53.00
2022-09-17T15:18:39.369Z,53.10
2022-09-17T15:21:24.473Z,53.00
2022-09-17T15:23:59.798Z,53.10
2022-09-17T15:26:34.461Z,53.20
2022-09-17T15:29:05.493Z,53.20
2022-09-17T15:31:34.004Z,53.30
2022-09-17T15:34:02.569Z,53.40
2022-09-17T15:36:31.817Z,53.40
2022-09-17T15:39:02.708Z,53.30
2022-09-17T15:41:34.110Z,53.50
2022-09-17T15:44:29.883Z,53.30
2022-09-17T15:47:38.769Z,53.70
2022-09-17T15:50:17.971Z,53.10
2022-09-17T15:52:46.999Z,53.20
2022-09-17T15:55:48.500Z,53.20
2022-09-17T15:58:26.903Z,55.00
2022-09-17T16:01:51.070Z,52.50
2022-09-17T16:04:36.236Z,52.50
2022-09-17T16:07:30.165Z,52.60
2022-09-17T16:09:59.392Z,52.60
2022-09-17T16:12:30.005Z,52.60
2022-09-17T16:15:01.331Z,52.60
2022-09-17T16:17:35.722Z,52.90
2022-09-17T16:20:14.014Z,52.70
2022-09-17T16:22:42.316Z,52.60
2022-09-17T16:25:11.194Z,52.60
2022-09-17T16:27:49.281Z,52.40
2022-09-17T16:30:20.631Z,52.40
2022-09-17T16:32:48.944Z,52.50
2022-09-17T16:35:19.967Z,51.60
2022-09-17T16:37:51.069Z,51.80
2022-09-17T16:40:20.890Z,51.80
2022-09-17T16:42:52.561Z,51.70
2022-09-17T16:45:23.455Z,52.10
2022-09-17T16:47:55.697Z,52.10
2022-09-17T16:50:24.406Z,54.80
2022-09-17T16:52:53.382Z,54.50
2022-09-17T16:55:22.725Z,54.70
2022-09-17T16:57:52.831Z,55.00
2022-09-17T17:00:22.601Z,63.50
2022-09-17T17:02:56.153Z,60.40
2022-09-17T17:05:26.716Z,59.40
2022-09-17T17:07:56.160Z,59.10
2022-09-17T17:10:26.517Z,59.00
2022-09-17T17:12:57.408Z,58.90
2022-09-17T17:15:25.680Z,58.90
2022-09-17T17:17:54.404Z,58.80
2022-09-17T17:20:23.151Z,58.80
2022-09-17T17:22:52.051Z,58.70
2022-09-17T17:25:20.582Z,58.80
2022-09-17T17:27:48.766Z,58.90
2022-09-17T17:30:18.566Z,58.90
2022-09-17T17:32:51.882Z,59.00
2022-09-17T17:35:20.632Z,58.70
2022-09-17T17:37:50.226Z,58.40
2022-09-17T17:40:19.152Z,57.90
2022-09-17T17:42:55.603Z,57.50
2022-09-17T17:45:25.879Z,57.40
2022-09-17T17:47:56.009Z,57.90
2022-09-17T17:50:24.976Z,56.80
2022-09-17T17:52:55.976Z,57.30
2022-09-17T17:55:25.682Z,56.60
2022-09-17T17:58:01.124Z,58.20
2022-09-17T18:00:31.556Z,57.70
2022-09-17T18:03:00.162Z,59.00
2022-09-17T18:05:28.665Z,58.60
2022-09-17T18:07:57.103Z,59.70
2022-09-17T18:10:25.383Z,59.30
2022-09-17T18:12:55.766Z,58.90
2022-09-17T18:15:24.476Z,59.50
2022-09-17T18:17:54.617Z,59.50
2022-09-17T18:20:23.299Z,59.50
2022-09-17T18:22:52.622Z,59.40
2022-09-17T18:25:20.939Z,59.40
2022-09-17T18:27:50.491Z,59.40
2022-09-17T18:30:20.049Z,59.00
2022-09-17T18:32:49.653Z,58.00
2022-09-17T18:35:20.100Z,58.00
2022-09-17T18:37:48.813Z,57.80
2022-09-17T18:40:17.856Z,57.80
2022-09-17T18:42:46.223Z,58.20
2022-09-17T18:45:14.658Z,59.00
2022-09-17T18:47:43.648Z,58.40
2022-09-17T18:50:12.706Z,58.00
2022-09-17T18:52:42.348Z,57.80
2022-09-17T18:55:11.833Z,57.70
2022-09-17T18:57:40.064Z,57.70
2022-09-17T19:00:11.314Z,57.80
2022-09-17T19:02:39.817Z,57.60
2022-09-17T19:05:09.560Z,57.80
2022-09-17T19:07:38.208Z,58.00
2022-09-17T19:10:09.942Z,58.00
2022-09-17T19:12:38.737Z,57.90
2022-09-17T19:15:09.770Z,57.80
2022-09-17T19:17:38.133Z,57.70
2022-09-17T19:20:07.280Z,57.90
2022-09-17T19:22:35.819Z,57.70
2022-09-17T19:25:04.514Z,57.70
2022-09-17T19:27:34.604Z,57.80
2022-09-17T19:30:03.172Z,57.80
2022-09-17T19:32:33.454Z,57.80
2022-09-17T19:35:04.196Z,57.70
2022-09-17T19:37:33.047Z,57.70
2022-09-17T19:40:02.070Z,57.80
2022-09-17T19:42:30.996Z,57.80
2022-09-17T19:45:00.661Z,57.70
2022-09-17T19:47:29.158Z,57.60
2022-09-17T19:49:57.746Z,57.60
2022-09-17T19:52:26.867Z,57.60
2022-09-17T19:54:55.501Z,57.50
2022-09-17T19:57:27.523Z,57.50
2022-09-17T19:59:57.268Z,57.40
2022-09-17T20:02:27.559Z,57.90
2022-09-17T20:04:56.076Z,59.60
2022-09-17T20:07:26.884Z,58.60
2022-09-17T20:09:58.610Z,58.20
2022-09-17T20:12:32.025Z,58.10
2022-09-17T20:15:00.924Z,58.20
2022-09-17T20:18:23.704Z,58.50
2022-09-17T20:20:52.530Z,58.30
2022-09-17T20:23:21.240Z,58.30
2022-09-17T20:25:53.798Z,58.30
2022-09-17T20:28:24.847Z,58.30
2022-09-17T20:31:02.669Z,58.30
2022-09-17T20:33:32.824Z,58.30
2022-09-17T20:36:01.832Z,58.40
2022-09-17T20:39:10.003Z,58.50
2022-09-17T20:41:20.032Z,58.40
2022-09-17T20:43:50.782Z,58.20
2022-09-17T20:46:22.720Z,58.10
2022-09-17T20:48:54.834Z,54.30
2022-09-17T20:51:25.639Z,54.80
2022-09-17T20:53:53.791Z,55.20
2022-09-17T20:56:24.768Z,55.50
2022-09-17T20:59:03.881Z,55.00
2022-09-17T21:01:34.480Z,55.40
2022-09-17T21:04:07.114Z,55.50
2022-09-17T21:06:37.767Z,55.70
2022-09-17T21:09:07.345Z,55.40
2022-09-17T21:11:35.938Z,55.50
2022-09-17T21:14:04.825Z,55.60
2022-09-17T21:16:33.369Z,55.50
2022-09-17T21:19:07.817Z,55.50
2022-09-17T21:21:36.551Z,55.30
2022-09-17T21:24:07.433Z,55.40
2022-09-17T21:26:36.147Z,55.40
2022-09-17T21:29:04.461Z,55.30
2022-09-17T21:31:36.760Z,55.40
2022-09-17T21:34:09.158Z,55.40
2022-09-17T21:36:39.222Z,55.30
2022-09-17T21:39:13.240Z,55.30
2022-09-17T21:41:42.929Z,55.30
2022-09-17T21:44:12.303Z,55.50
2022-09-17T21:46:42.097Z,55.30
2022-09-17T21:49:13.325Z,55.00
2022-09-17T21:51:43.651Z,54.90
2022-09-17T21:54:15.761Z,54.80
2022-09-17T21:56:44.622Z,54.90
2022-09-17T21:59:15.390Z,54.90
2022-09-17T22:01:47.961Z,54.90
2022-09-17T22:04:20.418Z,55.00
2022-09-17T22:06:50.552Z,55.00
2022-09-17T22:09:22.187Z,55.00
2022-09-17T22:11:51.199Z,55.00
2022-09-17T22:14:22.002Z,55.00
2022-09-17T22:16:52.607Z,55.10
2022-09-17T22:19:24.308Z,55.10
2022-09-17T22:21:54.812Z,55.20
2022-09-17T22:24:24.157Z,55.10
2022-09-17T22:26:57.773Z,55.20
2022-09-17T22:29:28.467Z,55.10
2022-09-17T22:31:57.226Z,55.10
2022-09-17T22:34:27.110Z,55.40
2022-09-17T22:36:55.375Z,55.20
2022-09-17T22:39:23.854Z,55.30
2022-09-17T22:41:52.059Z,55.20
2022-09-17T22:44:21.351Z,55.40
2022-09-17T22:46:56.924Z,55.30
2022-09-17T22:49:27.379Z,55.30
2022-09-17T22:51:56.534Z,55.10
2022-09-17T22:54:25.572Z,54.90
2022-09-17T22:56:53.749Z,54.80
2022-09-17T22:59:22.080Z,54.80
2022-09-17T23:47:14.400Z,55.00
2022-09-17T23:49:42.738Z,54.80
2022-09-17T23:52:10.987Z,54.80
2022-09-17T23:54:39.155Z,54.80
2022-09-17T23:57:09.457Z,54.70
2022-09-17T23:59:37.804Z,54.80
